sensor_id;sensor_type;location;lat;lon;timestamp;temperature;humidity
17495;DHT22;8864;51.970;4.614;2023-05-07T00:00:54;21.30;69.40
17495;DHT22;8864;51.970;4.614;2023-05-07T00:03:21;21.20;69.30
17495;DHT22;8864;51.970;4.614;2023-05-07T00:05:50;21.20;69.40
17495;DHT22;8864;51.970;4.614;2023-05-07T00:08:18;21.30;69.40
17495;DHT22;8864;51.970;4.614;2023-05-07T00:10:45;21.30;69.40
17495;DHT22;8864;51.970;4.614;2023-05-07T00:13:12;21.30;69.40
17495;DHT22;8864;51.970;4.614;2023-05-07T00:15:39;21.20;69.30
17495;DHT22;8864;51.970;4.614;2023-05-07T00:18:06;21.20;69.40
17495;DHT22;8864;51.970;4.614;2023-05-07T00:20:33;21.20;69.40
17495;DHT22;8864;51.970;4.614;2023-05-07T00:23:02;21.20;69.40
17495;DHT22;8864;51.970;4.614;2023-05-07T00:25:29;21.30;69.40
17495;DHT22;8864;51.970;4.614;2023-05-07T00:27:55;21.30;69.40
17495;DHT22;8864;51.970;4.614;2023-05-07T00:30:23;21.20;69.40
17495;DHT22;8864;51.970;4.614;2023-05-07T00:32:51;21.30;69.50
17495;DHT22;8864;51.970;4.614;2023-05-07T00:35:18;21.20;70.20
17495;DHT22;8864;51.970;4.614;2023-05-07T00:37:45;21.30;69.60
17495;DHT22;8864;51.970;4.614;2023-05-07T00:40:13;21.20;69.40
17495;DHT22;8864;51.970;4.614;2023-05-07T00:42:40;21.20;69.40
17495;DHT22;8864;51.970;4.614;2023-05-07T00:45:07;21.20;69.40
17495;DHT22;8864;51.970;4.614;2023-05-07T00:47:36;21.20;69.50
17495;DHT22;8864;51.970;4.614;2023-05-07T00:50:04;21.20;69.50
17495;DHT22;8864;51.970;4.614;2023-05-07T00:52:31;21.20;69.40
17495;DHT22;8864;51.970;4.614;2023-05-07T00:55:00;21.20;69.50
17495;DHT22;8864;51.970;4.614;2023-05-07T00:57:33;21.20;69.50
17495;DHT22;8864;51.970;4.614;2023-05-07T01:00:03;21.20;69.50
17495;DHT22;8864;51.970;4.614;2023-05-07T01:02:31;21.20;69.60
17495;DHT22;8864;51.970;4.614;2023-05-07T01:04:57;21.20;69.60
17495;DHT22;8864;51.970;4.614;2023-05-07T01:07:24;21.20;69.60
17495;DHT22;8864;51.970;4.614;2023-05-07T01:09:52;21.20;69.60
17495;DHT22;8864;51.970;4.614;2023-05-07T01:12:19;21.20;69.60
17495;DHT22;8864;51.970;4.614;2023-05-07T01:14:48;21.20;69.60
17495;DHT22;8864;51.970;4.614;2023-05-07T01:17:16;21.20;69.50
17495;DHT22;8864;51.970;4.614;2023-05-07T01:19:43;21.20;69.60
17495;DHT22;8864;51.970;4.614;2023-05-07T01:22:10;21.20;69.60
17495;DHT22;8864;51.970;4.614;2023-05-07T01:24:39;21.20;69.70
17495;DHT22;8864;51.970;4.614;2023-05-07T01:27:06;21.20;69.70
17495;DHT22;8864;51.970;4.614;2023-05-07T01:29:33;21.20;69.80
17495;DHT22;8864;51.970;4.614;2023-05-07T01:32:00;21.20;69.80
17495;DHT22;8864;51.970;4.614;2023-05-07T01:34:31;21.20;69.80
17495;DHT22;8864;51.970;4.614;2023-05-07T01:36:59;21.20;69.90
17495;DHT22;8864;51.970;4.614;2023-05-07T01:39:29;21.20;69.90
17495;DHT22;8864;51.970;4.614;2023-05-07T01:41:59;21.20;69.90
17495;DHT22;8864;51.970;4.614;2023-05-07T01:44:27;21.20;69.90
17495;DHT22;8864;51.970;4.614;2023-05-07T01:46:54;21.20;69.90
17495;DHT22;8864;51.970;4.614;2023-05-07T01:49:22;21.20;70.00
17495;DHT22;8864;51.970;4.614;2023-05-07T01:51:49;21.20;70.00
17495;DHT22;8864;51.970;4.614;2023-05-07T01:54:16;21.20;70.00
17495;DHT22;8864;51.970;4.614;2023-05-07T01:56:43;21.20;70.00
17495;DHT22;8864;51.970;4.614;2023-05-07T01:59:11;21.20;70.00
17495;DHT22;8864;51.970;4.614;2023-05-07T02:01:39;21.20;70.00
17495;DHT22;8864;51.970;4.614;2023-05-07T02:04:06;21.20;70.10
17495;DHT22;8864;51.970;4.614;2023-05-07T02:06:33;21.20;70.00
17495;DHT22;8864;51.970;4.614;2023-05-07T02:08:59;21.20;70.00
17495;DHT22;8864;51.970;4.614;2023-05-07T02:11:26;21.20;70.00
17495;DHT22;8864;51.970;4.614;2023-05-07T02:13:53;21.20;70.00
17495;DHT22;8864;51.970;4.614;2023-05-07T02:16:22;21.20;70.00
17495;DHT22;8864;51.970;4.614;2023-05-07T02:18:49;21.20;70.00
17495;DHT22;8864;51.970;4.614;2023-05-07T02:21:16;21.20;70.00
17495;DHT22;8864;51.970;4.614;2023-05-07T02:23:43;21.20;70.10
17495;DHT22;8864;51.970;4.614;2023-05-07T02:26:10;21.20;70.10
17495;DHT22;8864;51.970;4.614;2023-05-07T02:28:37;21.20;70.10
17495;DHT22;8864;51.970;4.614;2023-05-07T02:31:04;21.20;70.20
17495;DHT22;8864;51.970;4.614;2023-05-07T02:33:32;21.20;70.20
17495;DHT22;8864;51.970;4.614;2023-05-07T02:36:05;21.20;70.30
17495;DHT22;8864;51.970;4.614;2023-05-07T02:38:33;21.20;70.30
17495;DHT22;8864;51.970;4.614;2023-05-07T02:41:00;21.20;70.30
17495;DHT22;8864;51.970;4.614;2023-05-07T02:43:27;21.20;70.30
17495;DHT22;8864;51.970;4.614;2023-05-07T02:46:01;21.20;70.30
17495;DHT22;8864;51.970;4.614;2023-05-07T02:48:28;21.20;70.30
17495;DHT22;8864;51.970;4.614;2023-05-07T02:50:56;21.10;70.20
17495;DHT22;8864;51.970;4.614;2023-05-07T02:53:23;21.20;70.30
17495;DHT22;8864;51.970;4.614;2023-05-07T02:55:52;21.20;70.40
17495;DHT22;8864;51.970;4.614;2023-05-07T02:58:19;21.20;70.30
17495;DHT22;8864;51.970;4.614;2023-05-07T03:00:46;21.20;70.30
17495;DHT22;8864;51.970;4.614;2023-05-07T03:03:13;21.20;70.30
17495;DHT22;8864;51.970;4.614;2023-05-07T03:05:40;21.20;70.30
17495;DHT22;8864;51.970;4.614;2023-05-07T03:08:09;21.20;70.30
17495;DHT22;8864;51.970;4.614;2023-05-07T03:10:36;21.10;70.30
17495;DHT22;8864;51.970;4.614;2023-05-07T03:13:03;21.20;70.40
17495;DHT22;8864;51.970;4.614;2023-05-07T03:15:30;21.10;70.30
17495;DHT22;8864;51.970;4.614;2023-05-07T03:17:57;21.20;70.30
17495;DHT22;8864;51.970;4.614;2023-05-07T03:20:24;21.10;70.30
17495;DHT22;8864;51.970;4.614;2023-05-07T03:22:51;21.20;70.30
17495;DHT22;8864;51.970;4.614;2023-05-07T03:25:19;21.20;70.40
17495;DHT22;8864;51.970;4.614;2023-05-07T03:27:46;21.20;70.30
17495;DHT22;8864;51.970;4.614;2023-05-07T03:30:13;21.10;70.40
17495;DHT22;8864;51.970;4.614;2023-05-07T03:32:40;21.20;70.50
17495;DHT22;8864;51.970;4.614;2023-05-07T03:35:07;21.10;70.40
17495;DHT22;8864;51.970;4.614;2023-05-07T03:37:34;21.20;70.50
17495;DHT22;8864;51.970;4.614;2023-05-07T03:40:01;21.20;70.50
17495;DHT22;8864;51.970;4.614;2023-05-07T03:42:30;21.10;70.40
17495;DHT22;8864;51.970;4.614;2023-05-07T03:44:57;21.10;70.50
17495;DHT22;8864;51.970;4.614;2023-05-07T03:47:24;21.20;71.30
17495;DHT22;8864;51.970;4.614;2023-05-07T03:49:50;21.20;70.70
17495;DHT22;8864;51.970;4.614;2023-05-07T03:52:19;21.10;70.50
17495;DHT22;8864;51.970;4.614;2023-05-07T03:54:52;21.10;70.50
17495;DHT22;8864;51.970;4.614;2023-05-07T03:57:19;21.10;70.50
17495;DHT22;8864;51.970;4.614;2023-05-07T03:59:47;21.10;70.40
17495;DHT22;8864;51.970;4.614;2023-05-07T04:02:14;21.10;70.50
17495;DHT22;8864;51.970;4.614;2023-05-07T04:04:41;21.10;70.50
17495;DHT22;8864;51.970;4.614;2023-05-07T04:07:08;21.20;70.50
17495;DHT22;8864;51.970;4.614;2023-05-07T04:09:35;21.10;70.50
17495;DHT22;8864;51.970;4.614;2023-05-07T04:12:02;21.10;70.50
17495;DHT22;8864;51.970;4.614;2023-05-07T04:14:29;21.10;70.60
17495;DHT22;8864;51.970;4.614;2023-05-07T04:16:59;21.20;70.60
17495;DHT22;8864;51.970;4.614;2023-05-07T04:19:26;21.10;70.50
17495;DHT22;8864;51.970;4.614;2023-05-07T04:21:53;21.10;70.50
17495;DHT22;8864;51.970;4.614;2023-05-07T04:24:20;21.10;70.50
17495;DHT22;8864;51.970;4.614;2023-05-07T04:26:47;21.10;70.50
17495;DHT22;8864;51.970;4.614;2023-05-07T04:29:14;21.20;70.60
17495;DHT22;8864;51.970;4.614;2023-05-07T04:31:41;21.10;70.60
17495;DHT22;8864;51.970;4.614;2023-05-07T04:34:11;21.10;70.60
17495;DHT22;8864;51.970;4.614;2023-05-07T04:36:38;21.10;70.60
17495;DHT22;8864;51.970;4.614;2023-05-07T04:39:05;21.10;70.50
17495;DHT22;8864;51.970;4.614;2023-05-07T04:41:32;21.10;70.60
17495;DHT22;8864;51.970;4.614;2023-05-07T04:43:59;21.10;70.50
17495;DHT22;8864;51.970;4.614;2023-05-07T04:46:26;21.10;70.50
17495;DHT22;8864;51.970;4.614;2023-05-07T04:48:53;21.10;70.50
17495;DHT22;8864;51.970;4.614;2023-05-07T04:51:21;21.10;70.60
17495;DHT22;8864;51.970;4.614;2023-05-07T04:53:49;21.10;70.60
17495;DHT22;8864;51.970;4.614;2023-05-07T04:56:16;21.10;70.60
17495;DHT22;8864;51.970;4.614;2023-05-07T04:58:42;21.10;70.60
17495;DHT22;8864;51.970;4.614;2023-05-07T05:01:09;21.10;70.60
17495;DHT22;8864;51.970;4.614;2023-05-07T05:03:36;21.10;70.70
17495;DHT22;8864;51.970;4.614;2023-05-07T05:06:05;21.10;70.70
17495;DHT22;8864;51.970;4.614;2023-05-07T05:08:33;21.10;70.60
17495;DHT22;8864;51.970;4.614;2023-05-07T05:11:01;21.10;70.60
17495;DHT22;8864;51.970;4.614;2023-05-07T05:13:28;21.20;70.70
17495;DHT22;8864;51.970;4.614;2023-05-07T05:15:55;21.10;70.60
17495;DHT22;8864;51.970;4.614;2023-05-07T05:18:22;21.10;70.70
17495;DHT22;8864;51.970;4.614;2023-05-07T05:20:50;21.10;70.90
17495;DHT22;8864;51.970;4.614;2023-05-07T05:23:17;21.10;71.00
17495;DHT22;8864;51.970;4.614;2023-05-07T05:25:46;21.10;71.10
17495;DHT22;8864;51.970;4.614;2023-05-07T05:28:12;21.10;71.20
17495;DHT22;8864;51.970;4.614;2023-05-07T05:30:39;21.10;72.00
17495;DHT22;8864;51.970;4.614;2023-05-07T05:33:06;21.10;71.20
17495;DHT22;8864;51.970;4.614;2023-05-07T05:35:33;21.10;71.20
17495;DHT22;8864;51.970;4.614;2023-05-07T05:38:01;21.10;71.30
17495;DHT22;8864;51.970;4.614;2023-05-07T05:40:28;21.10;71.30
17495;DHT22;8864;51.970;4.614;2023-05-07T05:42:56;21.10;71.30
17495;DHT22;8864;51.970;4.614;2023-05-07T05:45:23;21.10;71.30
17495;DHT22;8864;51.970;4.614;2023-05-07T05:47:50;21.10;71.40
17495;DHT22;8864;51.970;4.614;2023-05-07T05:50:17;21.10;71.40
17495;DHT22;8864;51.970;4.614;2023-05-07T05:52:44;21.10;71.40
17495;DHT22;8864;51.970;4.614;2023-05-07T05:55:11;21.10;71.40
17495;DHT22;8864;51.970;4.614;2023-05-07T05:57:38;21.10;71.50
17495;DHT22;8864;51.970;4.614;2023-05-07T06:00:08;21.10;71.60
17495;DHT22;8864;51.970;4.614;2023-05-07T06:02:35;21.10;71.60
17495;DHT22;8864;51.970;4.614;2023-05-07T06:05:03;21.10;71.60
17495;DHT22;8864;51.970;4.614;2023-05-07T06:07:30;21.10;71.60
17495;DHT22;8864;51.970;4.614;2023-05-07T06:09:57;21.20;71.70
17495;DHT22;8864;51.970;4.614;2023-05-07T06:12:24;21.10;71.60
17495;DHT22;8864;51.970;4.614;2023-05-07T06:14:51;21.10;71.60
17495;DHT22;8864;51.970;4.614;2023-05-07T06:17:19;21.10;71.70
17495;DHT22;8864;51.970;4.614;2023-05-07T06:19:46;21.10;71.60
17495;DHT22;8864;51.970;4.614;2023-05-07T06:22:12;21.10;71.70
17495;DHT22;8864;51.970;4.614;2023-05-07T06:24:39;21.10;71.70
17495;DHT22;8864;51.970;4.614;2023-05-07T06:27:06;21.20;71.80
17495;DHT22;8864;51.970;4.614;2023-05-07T06:29:34;21.10;71.70
17495;DHT22;8864;51.970;4.614;2023-05-07T06:32:07;21.20;71.80
17495;DHT22;8864;51.970;4.614;2023-05-07T06:34:35;21.20;71.80
17495;DHT22;8864;51.970;4.614;2023-05-07T06:37:02;21.20;71.80
17495;DHT22;8864;51.970;4.614;2023-05-07T06:39:29;21.20;71.90
17495;DHT22;8864;51.970;4.614;2023-05-07T06:41:56;21.20;71.90
17495;DHT22;8864;51.970;4.614;2023-05-07T06:44:23;21.10;71.90
17495;DHT22;8864;51.970;4.614;2023-05-07T06:46:50;21.20;71.90
17495;DHT22;8864;51.970;4.614;2023-05-07T06:49:17;21.20;71.90
17495;DHT22;8864;51.970;4.614;2023-05-07T06:51:46;21.20;71.90
17495;DHT22;8864;51.970;4.614;2023-05-07T06:54:13;21.20;72.70
17495;DHT22;8864;51.970;4.614;2023-05-07T06:56:40;21.20;71.90
17495;DHT22;8864;51.970;4.614;2023-05-07T06:59:07;21.20;71.90
17495;DHT22;8864;51.970;4.614;2023-05-07T07:01:34;21.20;71.90
17495;DHT22;8864;51.970;4.614;2023-05-07T07:04:01;21.20;71.90
17495;DHT22;8864;51.970;4.614;2023-05-07T07:06:28;21.20;71.90
17495;DHT22;8864;51.970;4.614;2023-05-07T07:08:58;21.20;71.90
17495;DHT22;8864;51.970;4.614;2023-05-07T07:11:25;21.20;71.90
17495;DHT22;8864;51.970;4.614;2023-05-07T07:13:52;21.20;71.90
17495;DHT22;8864;51.970;4.614;2023-05-07T07:16:20;21.30;71.90
17495;DHT22;8864;51.970;4.614;2023-05-07T07:18:47;21.30;71.90
17495;DHT22;8864;51.970;4.614;2023-05-07T07:21:14;21.30;71.90
17495;DHT22;8864;51.970;4.614;2023-05-07T07:23:40;21.30;71.90
17495;DHT22;8864;51.970;4.614;2023-05-07T07:26:09;21.30;72.00
17495;DHT22;8864;51.970;4.614;2023-05-07T07:28:42;21.30;72.00
17495;DHT22;8864;51.970;4.614;2023-05-07T07:31:09;21.30;71.90
17495;DHT22;8864;51.970;4.614;2023-05-07T07:33:36;21.30;71.80
17495;DHT22;8864;51.970;4.614;2023-05-07T07:36:04;21.30;71.90
17495;DHT22;8864;51.970;4.614;2023-05-07T07:38:31;21.40;72.40
17495;DHT22;8864;51.970;4.614;2023-05-07T07:40:58;21.40;73.00
17495;DHT22;8864;51.970;4.614;2023-05-07T07:43:27;21.40;73.60
17495;DHT22;8864;51.970;4.614;2023-05-07T07:45:54;21.40;74.00
17495;DHT22;8864;51.970;4.614;2023-05-07T07:48:20;21.40;74.20
17495;DHT22;8864;51.970;4.614;2023-05-07T07:50:49;21.40;74.50
17495;DHT22;8864;51.970;4.614;2023-05-07T07:53:16;21.40;74.50
17495;DHT22;8864;51.970;4.614;2023-05-07T07:55:43;21.40;74.60
17495;DHT22;8864;51.970;4.614;2023-05-07T07:58:10;21.40;74.70
17495;DHT22;8864;51.970;4.614;2023-05-07T08:00:39;21.40;74.90
17495;DHT22;8864;51.970;4.614;2023-05-07T08:03:06;21.40;75.10
17495;DHT22;8864;51.970;4.614;2023-05-07T08:05:35;21.40;75.20
17495;DHT22;8864;51.970;4.614;2023-05-07T08:08:04;21.40;75.40
17495;DHT22;8864;51.970;4.614;2023-05-07T08:10:31;21.40;75.40
17495;DHT22;8864;51.970;4.614;2023-05-07T08:13:00;21.40;75.50
17495;DHT22;8864;51.970;4.614;2023-05-07T08:15:29;21.40;75.60
17495;DHT22;8864;51.970;4.614;2023-05-07T08:17:57;21.40;75.40
17495;DHT22;8864;51.970;4.614;2023-05-07T08:20:25;21.50;75.50
17495;DHT22;8864;51.970;4.614;2023-05-07T08:22:52;21.40;75.40
17495;DHT22;8864;51.970;4.614;2023-05-07T08:25:19;21.50;75.40
17495;DHT22;8864;51.970;4.614;2023-05-07T08:27:46;21.50;75.30
17495;DHT22;8864;51.970;4.614;2023-05-07T08:30:14;21.50;75.20
17495;DHT22;8864;51.970;4.614;2023-05-07T08:32:41;21.50;75.20
17495;DHT22;8864;51.970;4.614;2023-05-07T08:35:09;21.50;75.20
17495;DHT22;8864;51.970;4.614;2023-05-07T08:37:36;21.60;75.00
17495;DHT22;8864;51.970;4.614;2023-05-07T08:40:04;21.60;75.00
17495;DHT22;8864;51.970;4.614;2023-05-07T08:42:31;21.60;74.80
17495;DHT22;8864;51.970;4.614;2023-05-07T08:45:03;21.60;74.70
17495;DHT22;8864;51.970;4.614;2023-05-07T08:47:40;21.60;74.60
17495;DHT22;8864;51.970;4.614;2023-05-07T08:50:10;21.60;74.40
17495;DHT22;8864;51.970;4.614;2023-05-07T08:52:39;21.60;74.30
17495;DHT22;8864;51.970;4.614;2023-05-07T08:55:07;21.60;74.20
17495;DHT22;8864;51.970;4.614;2023-05-07T08:57:35;21.70;74.20
17495;DHT22;8864;51.970;4.614;2023-05-07T09:00:02;21.70;74.10
17495;DHT22;8864;51.970;4.614;2023-05-07T09:02:29;21.70;74.00
17495;DHT22;8864;51.970;4.614;2023-05-07T09:04:56;21.70;74.00
17495;DHT22;8864;51.970;4.614;2023-05-07T09:07:25;21.70;74.10
17495;DHT22;8864;51.970;4.614;2023-05-07T09:09:52;21.70;74.10
17495;DHT22;8864;51.970;4.614;2023-05-07T09:12:19;21.70;74.30
17495;DHT22;8864;51.970;4.614;2023-05-07T09:14:46;21.70;74.20
17495;DHT22;8864;51.970;4.614;2023-05-07T09:17:13;21.70;74.10
17495;DHT22;8864;51.970;4.614;2023-05-07T09:19:42;21.70;74.10
17495;DHT22;8864;51.970;4.614;2023-05-07T09:22:10;21.70;74.20
17495;DHT22;8864;51.970;4.614;2023-05-07T09:24:38;21.70;74.20
17495;DHT22;8864;51.970;4.614;2023-05-07T09:27:05;21.70;74.10
17495;DHT22;8864;51.970;4.614;2023-05-07T09:29:34;21.70;74.00
17495;DHT22;8864;51.970;4.614;2023-05-07T09:32:01;21.70;74.00
17495;DHT22;8864;51.970;4.614;2023-05-07T09:34:29;21.70;74.00
17495;DHT22;8864;51.970;4.614;2023-05-07T09:36:56;21.80;74.00
17495;DHT22;8864;51.970;4.614;2023-05-07T09:39:23;21.80;74.00
17495;DHT22;8864;51.970;4.614;2023-05-07T09:41:51;21.80;73.90
17495;DHT22;8864;51.970;4.614;2023-05-07T09:44:20;21.80;73.70
17495;DHT22;8864;51.970;4.614;2023-05-07T09:46:53;21.80;73.70
17495;DHT22;8864;51.970;4.614;2023-05-07T09:49:22;21.80;73.80
17495;DHT22;8864;51.970;4.614;2023-05-07T09:51:51;21.80;73.60
17495;DHT22;8864;51.970;4.614;2023-05-07T09:54:18;21.80;73.60
17495;DHT22;8864;51.970;4.614;2023-05-07T09:56:45;21.80;73.80
17495;DHT22;8864;51.970;4.614;2023-05-07T09:59:16;21.80;73.80
17495;DHT22;8864;51.970;4.614;2023-05-07T10:01:43;21.80;73.70
17495;DHT22;8864;51.970;4.614;2023-05-07T10:04:11;21.80;73.70
17495;DHT22;8864;51.970;4.614;2023-05-07T10:06:39;21.90;73.70
17495;DHT22;8864;51.970;4.614;2023-05-07T10:09:07;21.80;73.70
17495;DHT22;8864;51.970;4.614;2023-05-07T10:11:34;21.90;73.80
17495;DHT22;8864;51.970;4.614;2023-05-07T10:14:02;21.90;74.60
17495;DHT22;8864;51.970;4.614;2023-05-07T10:16:33;21.90;74.30
17495;DHT22;8864;51.970;4.614;2023-05-07T10:19:03;21.90;74.10
17495;DHT22;8864;51.970;4.614;2023-05-07T10:21:30;21.90;73.90
17495;DHT22;8864;51.970;4.614;2023-05-07T10:23:59;22.00;73.80
17495;DHT22;8864;51.970;4.614;2023-05-07T10:26:28;22.00;73.60
17495;DHT22;8864;51.970;4.614;2023-05-07T10:29:01;22.00;73.40
17495;DHT22;8864;51.970;4.614;2023-05-07T10:31:54;22.00;73.20
17495;DHT22;8864;51.970;4.614;2023-05-07T10:34:25;22.00;73.00
17495;DHT22;8864;51.970;4.614;2023-05-07T10:36:55;22.00;72.90
17495;DHT22;8864;51.970;4.614;2023-05-07T10:39:23;22.10;72.90
17495;DHT22;8864;51.970;4.614;2023-05-07T10:41:50;22.00;72.80
17495;DHT22;8864;51.970;4.614;2023-05-07T10:44:27;22.10;72.90
17495;DHT22;8864;51.970;4.614;2023-05-07T10:47:06;22.10;72.80
17495;DHT22;8864;51.970;4.614;2023-05-07T10:49:35;22.10;72.60
17495;DHT22;8864;51.970;4.614;2023-05-07T10:52:15;22.10;72.50
17495;DHT22;8864;51.970;4.614;2023-05-07T10:54:43;22.10;72.40
17495;DHT22;8864;51.970;4.614;2023-05-07T10:57:34;22.10;72.30
17495;DHT22;8864;51.970;4.614;2023-05-07T11:00:02;22.10;72.10
17495;DHT22;8864;51.970;4.614;2023-05-07T11:03:08;22.20;72.10
17495;DHT22;8864;51.970;4.614;2023-05-07T11:05:35;22.10;72.00
17495;DHT22;8864;51.970;4.614;2023-05-07T11:08:03;22.20;71.90
17495;DHT22;8864;51.970;4.614;2023-05-07T11:10:50;22.20;71.80
17495;DHT22;8864;51.970;4.614;2023-05-07T11:13:18;22.20;72.40
17495;DHT22;8864;51.970;4.614;2023-05-07T11:15:47;22.20;71.60
17495;DHT22;8864;51.970;4.614;2023-05-07T11:18:17;22.20;71.50
17495;DHT22;8864;51.970;4.614;2023-05-07T11:20:52;22.20;71.40
17495;DHT22;8864;51.970;4.614;2023-05-07T11:23:57;22.20;71.30
17495;DHT22;8864;51.970;4.614;2023-05-07T11:26:24;22.20;71.30
17495;DHT22;8864;51.970;4.614;2023-05-07T11:28:52;22.20;71.20
17495;DHT22;8864;51.970;4.614;2023-05-07T11:31:27;22.20;71.10
17495;DHT22;8864;51.970;4.614;2023-05-07T11:33:57;22.20;71.00
17495;DHT22;8864;51.970;4.614;2023-05-07T11:36:24;22.20;71.00
17495;DHT22;8864;51.970;4.614;2023-05-07T11:38:52;22.20;70.90
17495;DHT22;8864;51.970;4.614;2023-05-07T11:41:19;22.20;70.90
17495;DHT22;8864;51.970;4.614;2023-05-07T11:43:55;22.20;70.90
17495;DHT22;8864;51.970;4.614;2023-05-07T11:46:23;22.20;70.80
17495;DHT22;8864;51.970;4.614;2023-05-07T11:48:50;22.20;70.70
17495;DHT22;8864;51.970;4.614;2023-05-07T11:51:24;22.20;70.70
17495;DHT22;8864;51.970;4.614;2023-05-07T11:53:53;22.20;70.60
17495;DHT22;8864;51.970;4.614;2023-05-07T11:56:20;22.20;70.60
17495;DHT22;8864;51.970;4.614;2023-05-07T11:58:48;22.20;70.60
17495;DHT22;8864;51.970;4.614;2023-05-07T12:01:16;22.20;70.60
17495;DHT22;8864;51.970;4.614;2023-05-07T12:03:45;22.20;70.60
17495;DHT22;8864;51.970;4.614;2023-05-07T12:06:13;22.20;70.60
17495;DHT22;8864;51.970;4.614;2023-05-07T12:08:43;22.20;70.60
17495;DHT22;8864;51.970;4.614;2023-05-07T12:11:15;22.20;70.50
17495;DHT22;8864;51.970;4.614;2023-05-07T12:13:45;22.20;70.60
17495;DHT22;8864;51.970;4.614;2023-05-07T12:16:12;22.20;70.60
17495;DHT22;8864;51.970;4.614;2023-05-07T12:18:40;22.20;70.70
17495;DHT22;8864;51.970;4.614;2023-05-07T12:21:08;22.20;70.60
17495;DHT22;8864;51.970;4.614;2023-05-07T12:23:36;22.20;70.70
17495;DHT22;8864;51.970;4.614;2023-05-07T12:26:05;22.30;70.60
17495;DHT22;8864;51.970;4.614;2023-05-07T12:28:36;22.20;70.50
17495;DHT22;8864;51.970;4.614;2023-05-07T12:31:04;22.30;70.40
17495;DHT22;8864;51.970;4.614;2023-05-07T12:33:32;22.30;70.40
17495;DHT22;8864;51.970;4.614;2023-05-07T12:36:03;22.30;70.30
17495;DHT22;8864;51.970;4.614;2023-05-07T12:38:35;22.30;70.20
17495;DHT22;8864;51.970;4.614;2023-05-07T12:41:03;22.30;70.10
17495;DHT22;8864;51.970;4.614;2023-05-07T12:43:31;22.40;70.20
17495;DHT22;8864;51.970;4.614;2023-05-07T12:46:00;22.30;70.10
17495;DHT22;8864;51.970;4.614;2023-05-07T12:48:28;22.30;70.10
17495;DHT22;8864;51.970;4.614;2023-05-07T12:50:55;22.30;70.00
17495;DHT22;8864;51.970;4.614;2023-05-07T12:53:24;22.30;70.00
17495;DHT22;8864;51.970;4.614;2023-05-07T12:55:52;22.30;70.00
17495;DHT22;8864;51.970;4.614;2023-05-07T12:58:25;22.30;70.00
17495;DHT22;8864;51.970;4.614;2023-05-07T13:00:52;22.30;69.90
17495;DHT22;8864;51.970;4.614;2023-05-07T13:03:25;22.40;70.00
17495;DHT22;8864;51.970;4.614;2023-05-07T13:05:52;22.40;69.90
17495;DHT22;8864;51.970;4.614;2023-05-07T13:08:27;22.30;69.80
17495;DHT22;8864;51.970;4.614;2023-05-07T13:10:54;22.40;69.90
17495;DHT22;8864;51.970;4.614;2023-05-07T13:13:22;22.30;69.80
17495;DHT22;8864;51.970;4.614;2023-05-07T13:15:50;22.30;69.80
17495;DHT22;8864;51.970;4.614;2023-05-07T13:18:17;22.30;69.70
17495;DHT22;8864;51.970;4.614;2023-05-07T13:20:44;22.30;69.70
17495;DHT22;8864;51.970;4.614;2023-05-07T13:23:11;22.40;69.80
17495;DHT22;8864;51.970;4.614;2023-05-07T13:25:38;22.40;69.80
17495;DHT22;8864;51.970;4.614;2023-05-07T13:28:05;22.30;69.70
17495;DHT22;8864;51.970;4.614;2023-05-07T13:30:33;22.30;69.70
17495;DHT22;8864;51.970;4.614;2023-05-07T13:33:00;22.30;69.60
17495;DHT22;8864;51.970;4.614;2023-05-07T13:35:27;22.30;69.60
17495;DHT22;8864;51.970;4.614;2023-05-07T13:37:54;22.30;69.60
17495;DHT22;8864;51.970;4.614;2023-05-07T13:40:21;22.30;69.70
17495;DHT22;8864;51.970;4.614;2023-05-07T13:42:48;22.30;69.70
17495;DHT22;8864;51.970;4.614;2023-05-07T13:45:16;22.30;69.80
17495;DHT22;8864;51.970;4.614;2023-05-07T13:47:45;22.30;69.90
17495;DHT22;8864;51.970;4.614;2023-05-07T13:50:13;22.30;70.10
17495;DHT22;8864;51.970;4.614;2023-05-07T13:52:41;22.20;70.30
17495;DHT22;8864;51.970;4.614;2023-05-07T13:55:11;22.30;70.60
17495;DHT22;8864;51.970;4.614;2023-05-07T13:57:38;22.30;70.80
17495;DHT22;8864;51.970;4.614;2023-05-07T14:00:06;22.20;71.00
17495;DHT22;8864;51.970;4.614;2023-05-07T14:02:33;22.20;71.20
17495;DHT22;8864;51.970;4.614;2023-05-07T14:05:02;22.20;71.30
17495;DHT22;8864;51.970;4.614;2023-05-07T14:07:29;22.20;71.50
17495;DHT22;8864;51.970;4.614;2023-05-07T14:09:56;22.20;71.60
17495;DHT22;8864;51.970;4.614;2023-05-07T14:12:23;22.20;71.80
17495;DHT22;8864;51.970;4.614;2023-05-07T14:14:50;22.20;71.90
17495;DHT22;8864;51.970;4.614;2023-05-07T14:17:17;22.20;72.10
17495;DHT22;8864;51.970;4.614;2023-05-07T14:19:45;22.20;72.10
17495;DHT22;8864;51.970;4.614;2023-05-07T14:22:14;22.20;72.30
17495;DHT22;8864;51.970;4.614;2023-05-07T14:24:41;22.20;72.40
17495;DHT22;8864;51.970;4.614;2023-05-07T14:27:08;22.20;72.60
17495;DHT22;8864;51.970;4.614;2023-05-07T14:29:35;22.20;72.70
17495;DHT22;8864;51.970;4.614;2023-05-07T14:32:02;22.20;72.80
17495;DHT22;8864;51.970;4.614;2023-05-07T14:34:29;22.20;72.90
17495;DHT22;8864;51.970;4.614;2023-05-07T14:36:57;22.20;72.90
17495;DHT22;8864;51.970;4.614;2023-05-07T14:39:25;22.20;73.00
17495;DHT22;8864;51.970;4.614;2023-05-07T14:41:52;22.20;73.10
17495;DHT22;8864;51.970;4.614;2023-05-07T14:44:21;22.20;73.30
17495;DHT22;8864;51.970;4.614;2023-05-07T14:46:48;22.20;73.40
17495;DHT22;8864;51.970;4.614;2023-05-07T14:49:15;22.10;73.50
17495;DHT22;8864;51.970;4.614;2023-05-07T14:51:43;22.20;73.60
17495;DHT22;8864;51.970;4.614;2023-05-07T14:54:10;22.20;73.80
17495;DHT22;8864;51.970;4.614;2023-05-07T14:56:39;22.20;73.80
17495;DHT22;8864;51.970;4.614;2023-05-07T14:59:06;22.20;74.00
17495;DHT22;8864;51.970;4.614;2023-05-07T15:01:34;22.10;74.00
17495;DHT22;8864;51.970;4.614;2023-05-07T15:04:03;22.20;74.10
17495;DHT22;8864;51.970;4.614;2023-05-07T15:06:31;22.20;74.20
17495;DHT22;8864;51.970;4.614;2023-05-07T15:08:58;22.20;74.30
17495;DHT22;8864;51.970;4.614;2023-05-07T15:11:25;22.20;74.30
17495;DHT22;8864;51.970;4.614;2023-05-07T15:13:54;22.20;74.30
17495;DHT22;8864;51.970;4.614;2023-05-07T15:16:21;22.20;74.20
17495;DHT22;8864;51.970;4.614;2023-05-07T15:18:48;22.20;74.20
17495;DHT22;8864;51.970;4.614;2023-05-07T15:21:16;22.20;74.30
17495;DHT22;8864;51.970;4.614;2023-05-07T15:23:43;22.20;74.30
17495;DHT22;8864;51.970;4.614;2023-05-07T15:26:10;22.20;74.40
17495;DHT22;8864;51.970;4.614;2023-05-07T15:28:37;22.20;74.40
17495;DHT22;8864;51.970;4.614;2023-05-07T15:31:06;22.20;74.40
17495;DHT22;8864;51.970;4.614;2023-05-07T15:33:33;22.20;74.40
17495;DHT22;8864;51.970;4.614;2023-05-07T15:36:00;22.20;74.40
17495;DHT22;8864;51.970;4.614;2023-05-07T15:38:28;22.20;74.40
17495;DHT22;8864;51.970;4.614;2023-05-07T15:40:55;22.20;74.40
17495;DHT22;8864;51.970;4.614;2023-05-07T15:43:22;22.20;74.40
17495;DHT22;8864;51.970;4.614;2023-05-07T15:45:50;22.20;74.40
17495;DHT22;8864;51.970;4.614;2023-05-07T15:48:19;22.20;74.50
17495;DHT22;8864;51.970;4.614;2023-05-07T15:50:46;22.20;74.40